sensor_id;sensor_type;location;lat;lon;timestamp;P1;durP1;ratioP1;P2;durP2;ratioP2
43519;SDS011;46848;51.980;5.918;2023-12-29T00:01:42;11.15;;;1.45;;
43519;SDS011;46848;51.980;5.918;2023-12-29T00:04:08;14.15;;;2.20;;
43519;SDS011;46848;51.980;5.918;2023-12-29T00:06:37;13.65;;;1.98;;
43519;SDS011;46848;51.980;5.918;2023-12-29T00:09:03;10.18;;;2.30;;
43519;SDS011;46848;51.980;5.918;2023-12-29T00:11:29;12.05;;;2.13;;
43519;SDS011;46848;51.980;5.918;2023-12-29T00:13:54;9.50;;;1.67;;
43519;SDS011;46848;51.980;5.918;2023-12-29T00:16:20;13.57;;;2.00;;
43519;SDS011;46848;51.980;5.918;2023-12-29T00:18:46;10.65;;;1.60;;
43519;SDS011;46848;51.980;5.918;2023-12-29T00:21:11;8.90;;;1.83;;
43519;SDS011;46848;51.980;5.918;2023-12-29T00:23:37;7.38;;;1.63;;
43519;SDS011;46848;51.980;5.918;2023-12-29T00:26:03;10.82;;;2.00;;
43519;SDS011;46848;51.980;5.918;2023-12-29T00:28:28;8.38;;;1.65;;
43519;SDS011;46848;51.980;5.918;2023-12-29T00:30:54;6.78;;;1.85;;
43519;SDS011;46848;51.980;5.918;2023-12-29T00:33:19;10.63;;;1.50;;
43519;SDS011;46848;51.980;5.918;2023-12-29T00:35:45;7.97;;;1.88;;
43519;SDS011;46848;51.980;5.918;2023-12-29T00:38:10;9.25;;;1.65;;
43519;SDS011;46848;51.980;5.918;2023-12-29T00:40:36;7.63;;;1.70;;
43519;SDS011;46848;51.980;5.918;2023-12-29T00:43:02;12.70;;;1.77;;
43519;SDS011;46848;51.980;5.918;2023-12-29T00:45:27;14.27;;;2.15;;
43519;SDS011;46848;51.980;5.918;2023-12-29T00:47:58;9.65;;;2.10;;
43519;SDS011;46848;51.980;5.918;2023-12-29T00:50:25;8.98;;;2.22;;
43519;SDS011;46848;51.980;5.918;2023-12-29T00:52:51;9.48;;;1.73;;
43519;SDS011;46848;51.980;5.918;2023-12-29T00:55:17;11.07;;;2.05;;
43519;SDS011;46848;51.980;5.918;2023-12-29T00:57:43;8.32;;;1.35;;
43519;SDS011;46848;51.980;5.918;2023-12-29T01:00:10;12.20;;;2.00;;
43519;SDS011;46848;51.980;5.918;2023-12-29T01:02:37;8.55;;;1.75;;
43519;SDS011;46848;51.980;5.918;2023-12-29T01:05:03;8.02;;;1.50;;
43519;SDS011;46848;51.980;5.918;2023-12-29T01:07:29;11.48;;;2.00;;
43519;SDS011;46848;51.980;5.918;2023-12-29T01:09:54;9.30;;;1.67;;
43519;SDS011;46848;51.980;5.918;2023-12-29T01:12:20;7.00;;;1.77;;
43519;SDS011;46848;51.980;5.918;2023-12-29T01:14:46;12.35;;;1.85;;
43519;SDS011;46848;51.980;5.918;2023-12-29T01:17:11;10.68;;;1.70;;
43519;SDS011;46848;51.980;5.918;2023-12-29T01:19:37;11.18;;;1.58;;
43519;SDS011;46848;51.980;5.918;2023-12-29T01:22:02;12.15;;;2.17;;
43519;SDS011;46848;51.980;5.918;2023-12-29T01:24:28;8.00;;;1.50;;
43519;SDS011;46848;51.980;5.918;2023-12-29T01:26:54;10.15;;;1.42;;
43519;SDS011;46848;51.980;5.918;2023-12-29T01:29:19;10.40;;;2.05;;
43519;SDS011;46848;51.980;5.918;2023-12-29T01:31:45;8.68;;;1.77;;
43519;SDS011;46848;51.980;5.918;2023-12-29T01:34:10;11.77;;;1.90;;
43519;SDS011;46848;51.980;5.918;2023-12-29T01:36:36;15.00;;;2.40;;
43519;SDS011;46848;51.980;5.918;2023-12-29T01:39:02;9.30;;;2.00;;
43519;SDS011;46848;51.980;5.918;2023-12-29T01:41:28;10.70;;;2.05;;
43519;SDS011;46848;51.980;5.918;2023-12-29T01:46:26;13.40;;;1.75;;
43519;SDS011;46848;51.980;5.918;2023-12-29T01:48:54;13.13;;;1.90;;
43519;SDS011;46848;51.980;5.918;2023-12-29T01:51:23;11.77;;;1.95;;
43519;SDS011;46848;51.980;5.918;2023-12-29T01:53:52;14.35;;;2.03;;
43519;SDS011;46848;51.980;5.918;2023-12-29T01:56:19;11.07;;;1.88;;
43519;SDS011;46848;51.980;5.918;2023-12-29T01:58:45;9.15;;;1.90;;
43519;SDS011;46848;51.980;5.918;2023-12-29T02:01:16;10.52;;;2.42;;
43519;SDS011;46848;51.980;5.918;2023-12-29T02:03:44;9.30;;;2.22;;
43519;SDS011;46848;51.980;5.918;2023-12-29T02:06:10;15.15;;;2.45;;
43519;SDS011;46848;51.980;5.918;2023-12-29T02:08:42;11.20;;;2.00;;
43519;SDS011;46848;51.980;5.918;2023-12-29T02:11:07;10.55;;;2.30;;
43519;SDS011;46848;51.980;5.918;2023-12-29T02:13:33;13.75;;;2.17;;
43519;SDS011;46848;51.980;5.918;2023-12-29T02:16:00;9.45;;;1.40;;
43519;SDS011;46848;51.980;5.918;2023-12-29T02:18:37;11.02;;;1.98;;
43519;SDS011;46848;51.980;5.918;2023-12-29T02:21:04;12.00;;;1.75;;
43519;SDS011;46848;51.980;5.918;2023-12-29T02:23:29;10.35;;;1.95;;
43519;SDS011;46848;51.980;5.918;2023-12-29T02:25:55;6.60;;;1.50;;
43519;SDS011;46848;51.980;5.918;2023-12-29T02:28:27;7.63;;;1.65;;
43519;SDS011;46848;51.980;5.918;2023-12-29T02:33:55;9.65;;;2.33;;
43519;SDS011;46848;51.980;5.918;2023-12-29T02:36:22;8.15;;;1.70;;
43519;SDS011;46848;51.980;5.918;2023-12-29T02:38:48;7.22;;;1.40;;
43519;SDS011;46848;51.980;5.918;2023-12-29T02:41:14;11.10;;;2.15;;
43519;SDS011;46848;51.980;5.918;2023-12-29T02:43:40;9.10;;;1.80;;
43519;SDS011;46848;51.980;5.918;2023-12-29T02:46:05;9.85;;;2.08;;
43519;SDS011;46848;51.980;5.918;2023-12-29T02:48:31;5.78;;;1.48;;
43519;SDS011;46848;51.980;5.918;2023-12-29T02:50:57;10.95;;;1.63;;
43519;SDS011;46848;51.980;5.918;2023-12-29T02:53:22;12.30;;;1.80;;
43519;SDS011;46848;51.980;5.918;2023-12-29T02:55:48;13.00;;;2.08;;
43519;SDS011;46848;51.980;5.918;2023-12-29T02:58:13;12.60;;;2.08;;
43519;SDS011;46848;51.980;5.918;2023-12-29T03:00:39;6.95;;;1.50;;
43519;SDS011;46848;51.980;5.918;2023-12-29T03:03:04;9.95;;;1.70;;
43519;SDS011;46848;51.980;5.918;2023-12-29T03:05:30;8.93;;;1.52;;
43519;SDS011;46848;51.980;5.918;2023-12-29T03:07:56;11.15;;;2.25;;
43519;SDS011;46848;51.980;5.918;2023-12-29T03:10:22;11.55;;;1.98;;
43519;SDS011;46848;51.980;5.918;2023-12-29T03:12:48;8.40;;;1.65;;
43519;SDS011;46848;51.980;5.918;2023-12-29T03:15:14;7.18;;;1.52;;
43519;SDS011;46848;51.980;5.918;2023-12-29T03:17:40;13.25;;;2.00;;
43519;SDS011;46848;51.980;5.918;2023-12-29T03:20:05;7.78;;;1.90;;
43519;SDS011;46848;51.980;5.918;2023-12-29T03:22:32;10.35;;;2.15;;
43519;SDS011;46848;51.980;5.918;2023-12-29T03:24:58;11.30;;;2.10;;
43519;SDS011;46848;51.980;5.918;2023-12-29T03:27:24;4.85;;;1.27;;
43519;SDS011;46848;51.980;5.918;2023-12-29T03:29:49;13.82;;;2.08;;
43519;SDS011;46848;51.980;5.918;2023-12-29T03:32:15;14.65;;;2.00;;
43519;SDS011;46848;51.980;5.918;2023-12-29T03:34:40;14.35;;;2.30;;
43519;SDS011;46848;51.980;5.918;2023-12-29T03:37:06;9.93;;;1.70;;
43519;SDS011;46848;51.980;5.918;2023-12-29T03:39:32;8.23;;;1.73;;
43519;SDS011;46848;51.980;5.918;2023-12-29T03:42:00;10.93;;;1.67;;
43519;SDS011;46848;51.980;5.918;2023-12-29T03:44:26;10.70;;;1.70;;
43519;SDS011;46848;51.980;5.918;2023-12-29T03:46:51;15.00;;;2.35;;
43519;SDS011;46848;51.980;5.918;2023-12-29T03:49:17;12.77;;;2.10;;
43519;SDS011;46848;51.980;5.918;2023-12-29T03:51:42;14.75;;;2.58;;
43519;SDS011;46848;51.980;5.918;2023-12-29T03:54:08;10.80;;;2.42;;
43519;SDS011;46848;51.980;5.918;2023-12-29T03:56:33;8.80;;;2.25;;
43519;SDS011;46848;51.980;5.918;2023-12-29T03:58:59;10.27;;;1.92;;
43519;SDS011;46848;51.980;5.918;2023-12-29T04:01:25;11.85;;;2.15;;
43519;SDS011;46848;51.980;5.918;2023-12-29T04:03:52;8.23;;;1.70;;
43519;SDS011;46848;51.980;5.918;2023-12-29T04:06:18;11.50;;;1.77;;
43519;SDS011;46848;51.980;5.918;2023-12-29T04:08:43;10.95;;;2.58;;
43519;SDS011;46848;51.980;5.918;2023-12-29T04:11:09;15.60;;;2.15;;
43519;SDS011;46848;51.980;5.918;2023-12-29T04:13:35;11.45;;;2.15;;
43519;SDS011;46848;51.980;5.918;2023-12-29T04:16:00;10.98;;;2.10;;
43519;SDS011;46848;51.980;5.918;2023-12-29T04:18:26;12.38;;;2.53;;
43519;SDS011;46848;51.980;5.918;2023-12-29T04:20:52;16.30;;;2.40;;
43519;SDS011;46848;51.980;5.918;2023-12-29T04:23:17;13.93;;;2.33;;
43519;SDS011;46848;51.980;5.918;2023-12-29T04:25:43;11.45;;;1.75;;
43519;SDS011;46848;51.980;5.918;2023-12-29T04:28:09;9.63;;;2.00;;
43519;SDS011;46848;51.980;5.918;2023-12-29T04:30:35;12.23;;;2.20;;
43519;SDS011;46848;51.980;5.918;2023-12-29T04:33:00;11.18;;;1.98;;
43519;SDS011;46848;51.980;5.918;2023-12-29T04:35:26;16.25;;;2.80;;
43519;SDS011;46848;51.980;5.918;2023-12-29T04:37:52;13.27;;;1.90;;
43519;SDS011;46848;51.980;5.918;2023-12-29T04:40:18;16.38;;;2.58;;
43519;SDS011;46848;51.980;5.918;2023-12-29T04:42:43;13.02;;;2.30;;
43519;SDS011;46848;51.980;5.918;2023-12-29T04:45:09;12.57;;;2.42;;
43519;SDS011;46848;51.980;5.918;2023-12-29T04:47:35;14.82;;;3.08;;
43519;SDS011;46848;51.980;5.918;2023-12-29T04:50:01;13.63;;;2.20;;
43519;SDS011;46848;51.980;5.918;2023-12-29T04:52:27;19.20;;;2.50;;
43519;SDS011;46848;51.980;5.918;2023-12-29T04:54:53;12.85;;;2.40;;
43519;SDS011;46848;51.980;5.918;2023-12-29T04:57:19;20.63;;;2.85;;
43519;SDS011;46848;51.980;5.918;2023-12-29T04:59:45;11.27;;;2.10;;
43519;SDS011;46848;51.980;5.918;2023-12-29T05:02:10;12.93;;;2.55;;
43519;SDS011;46848;51.980;5.918;2023-12-29T05:04:36;10.57;;;2.08;;
43519;SDS011;46848;51.980;5.918;2023-12-29T05:07:03;14.00;;;2.75;;
43519;SDS011;46848;51.980;5.918;2023-12-29T05:09:30;12.60;;;2.40;;
43519;SDS011;46848;51.980;5.918;2023-12-29T05:11:55;15.65;;;2.70;;
43519;SDS011;46848;51.980;5.918;2023-12-29T05:14:21;17.35;;;3.22;;
43519;SDS011;46848;51.980;5.918;2023-12-29T05:16:46;12.75;;;2.50;;
43519;SDS011;46848;51.980;5.918;2023-12-29T05:19:12;15.05;;;2.58;;
43519;SDS011;46848;51.980;5.918;2023-12-29T05:21:38;14.48;;;3.10;;
43519;SDS011;46848;51.980;5.918;2023-12-29T05:24:03;14.02;;;2.78;;
43519;SDS011;46848;51.980;5.918;2023-12-29T05:26:31;14.15;;;2.88;;
43519;SDS011;46848;51.980;5.918;2023-12-29T05:28:56;10.85;;;1.98;;
43519;SDS011;46848;51.980;5.918;2023-12-29T05:31:22;18.70;;;2.60;;
43519;SDS011;46848;51.980;5.918;2023-12-29T05:33:47;15.48;;;2.45;;
43519;SDS011;46848;51.980;5.918;2023-12-29T05:36:13;17.17;;;3.03;;
43519;SDS011;46848;51.980;5.918;2023-12-29T05:38:39;10.90;;;2.25;;
43519;SDS011;46848;51.980;5.918;2023-12-29T05:41:06;15.32;;;2.78;;
43519;SDS011;46848;51.980;5.918;2023-12-29T05:43:32;10.50;;;2.40;;
43519;SDS011;46848;51.980;5.918;2023-12-29T05:45:58;13.85;;;2.85;;
43519;SDS011;46848;51.980;5.918;2023-12-29T05:48:24;12.23;;;2.80;;
43519;SDS011;46848;51.980;5.918;2023-12-29T05:50:50;13.52;;;2.83;;
43519;SDS011;46848;51.980;5.918;2023-12-29T05:53:16;11.30;;;2.00;;
43519;SDS011;46848;51.980;5.918;2023-12-29T05:55:42;14.25;;;2.25;;
43519;SDS011;46848;51.980;5.918;2023-12-29T05:58:08;10.60;;;2.28;;
43519;SDS011;46848;51.980;5.918;2023-12-29T06:00:35;12.60;;;2.45;;
43519;SDS011;46848;51.980;5.918;2023-12-29T06:03:01;15.82;;;2.65;;
43519;SDS011;46848;51.980;5.918;2023-12-29T06:05:29;14.60;;;2.25;;
43519;SDS011;46848;51.980;5.918;2023-12-29T06:07:54;14.27;;;2.25;;
43519;SDS011;46848;51.980;5.918;2023-12-29T06:10:20;15.63;;;3.10;;
43519;SDS011;46848;51.980;5.918;2023-12-29T06:12:46;15.85;;;2.22;;
43519;SDS011;46848;51.980;5.918;2023-12-29T06:15:12;13.18;;;2.38;;
43519;SDS011;46848;51.980;5.918;2023-12-29T06:17:39;10.93;;;2.60;;
43519;SDS011;46848;51.980;5.918;2023-12-29T06:20:05;12.63;;;2.13;;
43519;SDS011;46848;51.980;5.918;2023-12-29T06:22:32;12.23;;;2.40;;
43519;SDS011;46848;51.980;5.918;2023-12-29T06:24:57;10.82;;;2.28;;
43519;SDS011;46848;51.980;5.918;2023-12-29T06:27:24;14.95;;;2.60;;
43519;SDS011;46848;51.980;5.918;2023-12-29T06:29:50;15.05;;;2.20;;
43519;SDS011;46848;51.980;5.918;2023-12-29T06:32:15;11.68;;;2.33;;
43519;SDS011;46848;51.980;5.918;2023-12-29T06:34:41;12.73;;;2.20;;
43519;SDS011;46848;51.980;5.918;2023-12-29T06:37:07;10.60;;;1.98;;
43519;SDS011;46848;51.980;5.918;2023-12-29T06:39:33;8.95;;;2.05;;
43519;SDS011;46848;51.980;5.918;2023-12-29T06:41:58;14.20;;;2.75;;
43519;SDS011;46848;51.980;5.918;2023-12-29T06:44:24;13.30;;;1.98;;
43519;SDS011;46848;51.980;5.918;2023-12-29T06:46:49;10.77;;;2.00;;
43519;SDS011;46848;51.980;5.918;2023-12-29T06:49:15;10.23;;;1.95;;
43519;SDS011;46848;51.980;5.918;2023-12-29T06:51:40;11.23;;;2.40;;
43519;SDS011;46848;51.980;5.918;2023-12-29T06:54:06;12.38;;;2.50;;
43519;SDS011;46848;51.980;5.918;2023-12-29T06:56:32;13.13;;;2.00;;
43519;SDS011;46848;51.980;5.918;2023-12-29T06:58:58;19.65;;;2.22;;
43519;SDS011;46848;51.980;5.918;2023-12-29T07:01:23;10.15;;;1.98;;
43519;SDS011;46848;51.980;5.918;2023-12-29T07:03:49;14.75;;;2.20;;
43519;SDS011;46848;51.980;5.918;2023-12-29T07:06:15;10.45;;;2.75;;
43519;SDS011;46848;51.980;5.918;2023-12-29T07:08:40;14.80;;;2.13;;
43519;SDS011;46848;51.980;5.918;2023-12-29T07:11:10;13.88;;;1.85;;
43519;SDS011;46848;51.980;5.918;2023-12-29T07:13:36;11.05;;;1.85;;
43519;SDS011;46848;51.980;5.918;2023-12-29T07:16:02;10.23;;;2.03;;
43519;SDS011;46848;51.980;5.918;2023-12-29T07:18:28;6.53;;;1.63;;
43519;SDS011;46848;51.980;5.918;2023-12-29T07:20:53;7.70;;;2.20;;
43519;SDS011;46848;51.980;5.918;2023-12-29T07:23:19;8.40;;;2.00;;
43519;SDS011;46848;51.980;5.918;2023-12-29T07:25:44;7.07;;;2.17;;
43519;SDS011;46848;51.980;5.918;2023-12-29T07:28:10;7.93;;;1.55;;
43519;SDS011;46848;51.980;5.918;2023-12-29T07:30:35;11.13;;;2.30;;
43519;SDS011;46848;51.980;5.918;2023-12-29T07:33:01;11.38;;;1.63;;
43519;SDS011;46848;51.980;5.918;2023-12-29T07:35:27;8.20;;;1.63;;
43519;SDS011;46848;51.980;5.918;2023-12-29T07:37:53;3.70;;;0.88;;
43519;SDS011;46848;51.980;5.918;2023-12-29T07:40:18;8.20;;;1.63;;
43519;SDS011;46848;51.980;5.918;2023-12-29T07:42:44;6.80;;;1.63;;
43519;SDS011;46848;51.980;5.918;2023-12-29T07:45:11;8.38;;;1.73;;
43519;SDS011;46848;51.980;5.918;2023-12-29T07:47:37;6.05;;;1.55;;
43519;SDS011;46848;51.980;5.918;2023-12-29T07:50:03;9.32;;;1.63;;
43519;SDS011;46848;51.980;5.918;2023-12-29T07:52:30;4.57;;;1.13;;
43519;SDS011;46848;51.980;5.918;2023-12-29T07:54:56;9.68;;;1.83;;
43519;SDS011;46848;51.980;5.918;2023-12-29T07:57:21;8.85;;;1.65;;
43519;SDS011;46848;51.980;5.918;2023-12-29T07:59:47;8.15;;;1.88;;
43519;SDS011;46848;51.980;5.918;2023-12-29T08:02:13;7.88;;;1.48;;
43519;SDS011;46848;51.980;5.918;2023-12-29T08:04:38;7.38;;;1.65;;
43519;SDS011;46848;51.980;5.918;2023-12-29T08:07:04;4.82;;;1.00;;
43519;SDS011;46848;51.980;5.918;2023-12-29T08:09:29;6.85;;;1.77;;
43519;SDS011;46848;51.980;5.918;2023-12-29T08:11:55;5.05;;;1.33;;
43519;SDS011;46848;51.980;5.918;2023-12-29T08:14:21;9.50;;;1.30;;
43519;SDS011;46848;51.980;5.918;2023-12-29T08:16:47;5.32;;;1.48;;
43519;SDS011;46848;51.980;5.918;2023-12-29T08:19:12;3.97;;;1.30;;
43519;SDS011;46848;51.980;5.918;2023-12-29T08:21:40;6.90;;;2.00;;
43519;SDS011;46848;51.980;5.918;2023-12-29T08:24:05;6.40;;;1.80;;
43519;SDS011;46848;51.980;5.918;2023-12-29T08:26:31;6.65;;;1.10;;
43519;SDS011;46848;51.980;5.918;2023-12-29T08:28:57;7.40;;;1.35;;
43519;SDS011;46848;51.980;5.918;2023-12-29T08:31:22;3.90;;;1.08;;
43519;SDS011;46848;51.980;5.918;2023-12-29T08:33:48;5.70;;;1.45;;
43519;SDS011;46848;51.980;5.918;2023-12-29T08:36:13;6.95;;;1.48;;
43519;SDS011;46848;51.980;5.918;2023-12-29T08:38:42;8.43;;;2.05;;
43519;SDS011;46848;51.980;5.918;2023-12-29T08:41:08;8.13;;;1.52;;
43519;SDS011;46848;51.980;5.918;2023-12-29T08:43:34;8.95;;;1.75;;
43519;SDS011;46848;51.980;5.918;2023-12-29T08:46:01;7.57;;;1.27;;
43519;SDS011;46848;51.980;5.918;2023-12-29T08:48:27;7.55;;;1.50;;
43519;SDS011;46848;51.980;5.918;2023-12-29T08:50:52;8.43;;;1.30;;
43519;SDS011;46848;51.980;5.918;2023-12-29T08:53:18;6.65;;;1.30;;
43519;SDS011;46848;51.980;5.918;2023-12-29T08:55:44;7.78;;;1.40;;
43519;SDS011;46848;51.980;5.918;2023-12-29T08:58:09;6.85;;;1.27;;
43519;SDS011;46848;51.980;5.918;2023-12-29T09:00:35;5.60;;;1.23;;
43519;SDS011;46848;51.980;5.918;2023-12-29T09:03:01;5.07;;;1.08;;
43519;SDS011;46848;51.980;5.918;2023-12-29T09:05:28;6.88;;;1.42;;
43519;SDS011;46848;51.980;5.918;2023-12-29T09:07:53;5.75;;;1.10;;
43519;SDS011;46848;51.980;5.918;2023-12-29T09:10:19;4.57;;;1.10;;
43519;SDS011;46848;51.980;5.918;2023-12-29T09:12:46;3.95;;;1.00;;
43519;SDS011;46848;51.980;5.918;2023-12-29T09:15:12;4.88;;;0.90;;
43519;SDS011;46848;51.980;5.918;2023-12-29T09:17:37;4.18;;;0.93;;
43519;SDS011;46848;51.980;5.918;2023-12-29T09:20:03;6.32;;;1.40;;
43519;SDS011;46848;51.980;5.918;2023-12-29T09:22:29;5.55;;;1.40;;
43519;SDS011;46848;51.980;5.918;2023-12-29T09:24:54;7.88;;;1.25;;
43519;SDS011;46848;51.980;5.918;2023-12-29T09:27:20;5.70;;;1.00;;
43519;SDS011;46848;51.980;5.918;2023-12-29T09:29:46;4.38;;;0.90;;
43519;SDS011;46848;51.980;5.918;2023-12-29T09:32:12;5.28;;;0.80;;
43519;SDS011;46848;51.980;5.918;2023-12-29T09:34:37;4.43;;;0.95;;
43519;SDS011;46848;51.980;5.918;2023-12-29T09:37:03;7.47;;;1.30;;
43519;SDS011;46848;51.980;5.918;2023-12-29T09:39:29;8.48;;;1.58;;
43519;SDS011;46848;51.980;5.918;2023-12-29T09:41:57;5.13;;;0.90;;
43519;SDS011;46848;51.980;5.918;2023-12-29T09:44:25;5.25;;;0.80;;
43519;SDS011;46848;51.980;5.918;2023-12-29T09:46:54;5.18;;;1.35;;
43519;SDS011;46848;51.980;5.918;2023-12-29T09:49:20;4.22;;;0.93;;
43519;SDS011;46848;51.980;5.918;2023-12-29T09:51:46;4.70;;;0.82;;
43519;SDS011;46848;51.980;5.918;2023-12-29T09:54:13;5.82;;;0.85;;
43519;SDS011;46848;51.980;5.918;2023-12-29T09:56:40;3.78;;;0.77;;
43519;SDS011;46848;51.980;5.918;2023-12-29T09:59:06;4.55;;;1.15;;
43519;SDS011;46848;51.980;5.918;2023-12-29T10:01:34;2.42;;;1.02;;
43519;SDS011;46848;51.980;5.918;2023-12-29T10:04:02;3.08;;;0.80;;
43519;SDS011;46848;51.980;5.918;2023-12-29T10:06:28;3.95;;;1.00;;
43519;SDS011;46848;51.980;5.918;2023-12-29T10:08:59;4.45;;;0.90;;
43519;SDS011;46848;51.980;5.918;2023-12-29T10:11:29;5.10;;;1.00;;
43519;SDS011;46848;51.980;5.918;2023-12-29T10:13:59;4.05;;;0.82;;
43519;SDS011;46848;51.980;5.918;2023-12-29T10:16:35;6.13;;;0.82;;
43519;SDS011;46848;51.980;5.918;2023-12-29T10:19:21;5.57;;;1.20;;
43519;SDS011;46848;51.980;5.918;2023-12-29T10:21:52;3.95;;;0.60;;
43519;SDS011;46848;51.980;5.918;2023-12-29T10:24:27;3.92;;;1.05;;
43519;SDS011;46848;51.980;5.918;2023-12-29T10:26:53;3.42;;;0.90;;
43519;SDS011;46848;51.980;5.918;2023-12-29T10:29:20;3.55;;;0.80;;
43519;SDS011;46848;51.980;5.918;2023-12-29T10:31:46;3.58;;;0.60;;
43519;SDS011;46848;51.980;5.918;2023-12-29T10:34:19;2.40;;;0.68;;
43519;SDS011;46848;51.980;5.918;2023-12-29T10:36:54;3.17;;;1.10;;
43519;SDS011;46848;51.980;5.918;2023-12-29T10:39:21;2.45;;;0.73;;
43519;SDS011;46848;51.980;5.918;2023-12-29T10:41:47;2.35;;;0.70;;
43519;SDS011;46848;51.980;5.918;2023-12-29T10:44:13;3.95;;;0.52;;
43519;SDS011;46848;51.980;5.918;2023-12-29T10:46:38;2.38;;;0.60;;
43519;SDS011;46848;51.980;5.918;2023-12-29T10:49:11;5.13;;;0.65;;
43519;SDS011;46848;51.980;5.918;2023-12-29T10:51:37;2.33;;;0.68;;
43519;SDS011;46848;51.980;5.918;2023-12-29T10:54:04;2.13;;;0.50;;
43519;SDS011;46848;51.980;5.918;2023-12-29T10:56:31;3.03;;;0.57;;
43519;SDS011;46848;51.980;5.918;2023-12-29T10:59:06;2.08;;;0.52;;
43519;SDS011;46848;51.980;5.918;2023-12-29T11:01:32;1.90;;;0.40;;
43519;SDS011;46848;51.980;5.918;2023-12-29T11:04:05;2.63;;;0.57;;
43519;SDS011;46848;51.980;5.918;2023-12-29T11:06:42;1.33;;;0.50;;
43519;SDS011;46848;51.980;5.918;2023-12-29T11:09:11;2.50;;;0.50;;
43519;SDS011;46848;51.980;5.918;2023-12-29T11:11:37;1.38;;;0.40;;
43519;SDS011;46848;51.980;5.918;2023-12-29T11:14:04;3.17;;;0.70;;
43519;SDS011;46848;51.980;5.918;2023-12-29T11:16:30;2.55;;;0.60;;
43519;SDS011;46848;51.980;5.918;2023-12-29T11:18:57;2.03;;;0.90;;
43519;SDS011;46848;51.980;5.918;2023-12-29T11:21:24;3.22;;;0.80;;
43519;SDS011;46848;51.980;5.918;2023-12-29T11:23:52;1.98;;;0.65;;
43519;SDS011;46848;51.980;5.918;2023-12-29T11:26:18;2.10;;;0.50;;
43519;SDS011;46848;51.980;5.918;2023-12-29T11:28:47;1.85;;;0.60;;
43519;SDS011;46848;51.980;5.918;2023-12-29T11:31:18;3.37;;;0.77;;
43519;SDS011;46848;51.980;5.918;2023-12-29T11:33:52;3.75;;;0.70;;
43519;SDS011;46848;51.980;5.918;2023-12-29T11:36:29;2.63;;;0.57;;
43519;SDS011;46848;51.980;5.918;2023-12-29T11:41:42;2.88;;;0.98;;
43519;SDS011;46848;51.980;5.918;2023-12-29T11:44:16;3.97;;;1.00;;
43519;SDS011;46848;51.980;5.918;2023-12-29T11:46:53;3.65;;;0.82;;
43519;SDS011;46848;51.980;5.918;2023-12-29T11:49:19;3.70;;;0.85;;
43519;SDS011;46848;51.980;5.918;2023-12-29T11:51:48;4.72;;;0.88;;
43519;SDS011;46848;51.980;5.918;2023-12-29T11:54:21;2.55;;;0.57;;
43519;SDS011;46848;51.980;5.918;2023-12-29T11:56:48;4.10;;;0.77;;
43519;SDS011;46848;51.980;5.918;2023-12-29T11:59:18;4.43;;;0.90;;
43519;SDS011;46848;51.980;5.918;2023-12-29T12:01:55;5.05;;;0.90;;
43519;SDS011;46848;51.980;5.918;2023-12-29T12:04:41;7.30;;;1.30;;
43519;SDS011;46848;51.980;5.918;2023-12-29T12:09:46;6.95;;;1.10;;
43519;SDS011;46848;51.980;5.918;2023-12-29T12:12:14;4.03;;;0.93;;
43519;SDS011;46848;51.980;5.918;2023-12-29T12:14:59;4.28;;;1.08;;
43519;SDS011;46848;51.980;5.918;2023-12-29T12:20:08;5.82;;;1.08;;
43519;SDS011;46848;51.980;5.918;2023-12-29T12:22:34;4.38;;;0.73;;
43519;SDS011;46848;51.980;5.918;2023-12-29T12:25:01;6.18;;;1.00;;
43519;SDS011;46848;51.980;5.918;2023-12-29T12:27:28;5.88;;;0.98;;
43519;SDS011;46848;51.980;5.918;2023-12-29T12:29:56;5.78;;;1.05;;
43519;SDS011;46848;51.980;5.918;2023-12-29T12:32:25;6.13;;;1.30;;
43519;SDS011;46848;51.980;5.918;2023-12-29T12:34:52;7.82;;;1.40;;
43519;SDS011;46848;51.980;5.918;2023-12-29T12:37:28;7.00;;;1.30;;
43519;SDS011;46848;51.980;5.918;2023-12-29T12:39:55;7.55;;;1.40;;
43519;SDS011;46848;51.980;5.918;2023-12-29T12:42:21;6.43;;;1.50;;
43519;SDS011;46848;51.980;5.918;2023-12-29T12:44:49;5.10;;;1.00;;
43519;SDS011;46848;51.980;5.918;2023-12-29T12:50:09;5.20;;;1.05;;
43519;SDS011;46848;51.980;5.918;2023-12-29T12:52:39;5.10;;;0.95;;
43519;SDS011;46848;51.980;5.918;2023-12-29T12:55:06;11.32;;;1.48;;
43519;SDS011;46848;51.980;5.918;2023-12-29T12:57:33;7.00;;;1.63;;
43519;SDS011;46848;51.980;5.918;2023-12-29T13:00:00;6.13;;;1.17;;
43519;SDS011;46848;51.980;5.918;2023-12-29T13:02:27;6.25;;;1.35;;
43519;SDS011;46848;51.980;5.918;2023-12-29T13:04:55;5.00;;;1.00;;
43519;SDS011;46848;51.980;5.918;2023-12-29T13:07:21;9.07;;;1.65;;
43519;SDS011;46848;51.980;5.918;2023-12-29T13:09:47;8.43;;;1.35;;
43519;SDS011;46848;51.980;5.918;2023-12-29T13:12:15;9.85;;;1.60;;
43519;SDS011;46848;51.980;5.918;2023-12-29T13:14:41;6.10;;;1.25;;
43519;SDS011;46848;51.980;5.918;2023-12-29T13:17:08;6.55;;;1.10;;
43519;SDS011;46848;51.980;5.918;2023-12-29T13:19:38;5.60;;;1.20;;
43519;SDS011;46848;51.980;5.918;2023-12-29T13:22:07;7.82;;;1.50;;
43519;SDS011;46848;51.980;5.918;2023-12-29T13:24:34;6.50;;;1.25;;
43519;SDS011;46848;51.980;5.918;2023-12-29T13:27:06;6.15;;;1.23;;
43519;SDS011;46848;51.980;5.918;2023-12-29T13:29:32;6.75;;;1.30;;
43519;SDS011;46848;51.980;5.918;2023-12-29T13:32:21;5.93;;;1.40;;
43519;SDS011;46848;51.980;5.918;2023-12-29T13:34:57;7.13;;;1.88;;
43519;SDS011;46848;51.980;5.918;2023-12-29T13:37:47;6.18;;;1.20;;
43519;SDS011;46848;51.980;5.918;2023-12-29T13:40:22;8.45;;;1.40;;
43519;SDS011;46848;51.980;5.918;2023-12-29T13:42:55;5.57;;;1.30;;
43519;SDS011;46848;51.980;5.918;2023-12-29T13:45:24;8.02;;;1.70;;
43519;SDS011;46848;51.980;5.918;2023-12-29T13:47:51;5.28;;;1.40;;
43519;SDS011;46848;51.980;5.918;2023-12-29T13:50:19;4.25;;;1.00;;
43519;SDS011;46848;51.980;5.918;2023-12-29T13:52:45;6.57;;;1.50;;
43519;SDS011;46848;51.980;5.918;2023-12-29T13:55:10;6.65;;;1.27;;
43519;SDS011;46848;51.980;5.918;2023-12-29T13:57:36;5.70;;;1.40;;
43519;SDS011;46848;51.980;5.918;2023-12-29T14:00:20;7.57;;;1.38;;
43519;SDS011;46848;51.980;5.918;2023-12-29T14:02:49;6.53;;;1.40;;
43519;SDS011;46848;51.980;5.918;2023-12-29T14:10:32;4.25;;;1.30;;
43519;SDS011;46848;51.980;5.918;2023-12-29T14:15:43;6.78;;;1.15;;
43519;SDS011;46848;51.980;5.918;2023-12-29T14:20:38;6.35;;;1.55;;
43519;SDS011;46848;51.980;5.918;2023-12-29T14:23:05;8.32;;;1.48;;
43519;SDS011;46848;51.980;5.918;2023-12-29T14:25:32;7.20;;;1.48;;
43519;SDS011;46848;51.980;5.918;2023-12-29T14:28:02;7.97;;;2.00;;
43519;SDS011;46848;51.980;5.918;2023-12-29T14:30:41;6.55;;;1.23;;
43519;SDS011;46848;51.980;5.918;2023-12-29T14:33:07;6.20;;;1.33;;
43519;SDS011;46848;51.980;5.918;2023-12-29T14:35:33;7.88;;;1.80;;
43519;SDS011;46848;51.980;5.918;2023-12-29T14:37:59;4.88;;;1.17;;
43519;SDS011;46848;51.980;5.918;2023-12-29T14:40:24;5.43;;;1.58;;
43519;SDS011;46848;51.980;5.918;2023-12-29T14:42:50;7.82;;;2.17;;
43519;SDS011;46848;51.980;5.918;2023-12-29T14:45:16;7.88;;;2.20;;
43519;SDS011;46848;51.980;5.918;2023-12-29T14:47:41;7.30;;;1.83;;
43519;SDS011;46848;51.980;5.918;2023-12-29T14:50:07;10.38;;;2.65;;
43519;SDS011;46848;51.980;5.918;2023-12-29T14:52:33;7.97;;;2.22;;
43519;SDS011;46848;51.980;5.918;2023-12-29T14:54:58;6.85;;;1.90;;
43519;SDS011;46848;51.980;5.918;2023-12-29T14:57:24;6.28;;;1.52;;
43519;SDS011;46848;51.980;5.918;2023-12-29T14:59:49;8.00;;;1.88;;
43519;SDS011;46848;51.980;5.918;2023-12-29T15:02:15;6.45;;;1.77;;
43519;SDS011;46848;51.980;5.918;2023-12-29T15:04:40;4.70;;;1.30;;
43519;SDS011;46848;51.980;5.918;2023-12-29T15:07:06;4.82;;;1.27;;
43519;SDS011;46848;51.980;5.918;2023-12-29T15:09:31;7.15;;;1.92;;